createdAt,value
2022-11-05T00:00:20.343Z,80.10
2022-11-05T00:06:04.433Z,68.70
2022-11-05T00:11:17.913Z,62.20
2022-11-05T00:16:42.977Z,62.00
2022-11-05T00:22:07.392Z,54.70
2022-11-05T00:27:14.211Z,54.10
2022-11-05T00:32:21.298Z,50.90
2022-11-05T00:37:29.503Z,60.80
2022-11-05T00:42:54.022Z,60.10
2022-11-05T00:48:18.651Z,71.60
2022-11-05T00:53:25.677Z,64.00
2022-11-05T00:58:32.370Z,72.60
2022-11-05T01:03:41.194Z,51.30
2022-11-05T01:08:48.688Z,48.60
2022-11-05T01:13:55.722Z,48.30
2022-11-05T01:19:03.904Z,40.30
2022-11-05T01:24:13.070Z,40.00
2022-11-05T01:29:19.988Z,34.40
2022-11-05T01:34:26.794Z,30.40
2022-11-05T01:39:33.677Z,24.30
2022-11-05T01:45:02.684Z,14.60
2022-11-05T01:50:38.098Z,5.40
2022-11-05T01:55:49.089Z,2.70
2022-11-05T02:00:58.018Z,2.00
2022-11-05T02:06:09.549Z,5.10
2022-11-05T02:11:18.305Z,2.60
2022-11-05T02:16:37.442Z,6.90
2022-11-05T02:22:22.999Z,4.60
2022-11-05T02:27:52.076Z,3.70
2022-11-05T02:33:07.882Z,4.60
2022-11-05T02:38:25.468Z,7.40
2022-11-05T02:43:44.493Z,6.50
2022-11-05T02:48:58.077Z,5.00
2022-11-05T02:54:15.315Z,4.70
2022-11-05T02:59:22.410Z,4.00
2022-11-05T03:04:30.117Z,7.00
2022-11-05T03:10:07.110Z,3.50
2022-11-05T03:15:21.467Z,4.40
2022-11-05T03:20:35.943Z,4.40
2022-11-05T03:25:47.952Z,3.60
2022-11-05T03:30:58.874Z,5.90
2022-11-05T03:36:16.222Z,4.30
2022-11-05T03:41:25.122Z,3.50
2022-11-05T03:46:34.744Z,3.30
2022-11-05T03:51:49.827Z,3.00
2022-11-05T03:57:04.974Z,3.30
2022-11-05T04:02:13.471Z,3.50
2022-11-05T04:07:38.576Z,4.40
2022-11-05T04:13:03.434Z,3.90
2022-11-05T04:18:10.529Z,4.50
2022-11-05T04:23:36.481Z,4.20
2022-11-05T04:29:06.726Z,4.40
2022-11-05T04:34:14.686Z,4.00
2022-11-05T04:39:22.565Z,5.00
2022-11-05T04:44:29.308Z,4.40
2022-11-05T04:49:36.135Z,5.70
2022-11-05T04:54:43.056Z,5.00
2022-11-05T04:59:52.390Z,4.30
2022-11-05T05:04:59.230Z,4.50
2022-11-05T05:10:08.231Z,5.70
2022-11-05T05:15:15.500Z,4.90
2022-11-05T05:20:43.239Z,8.20
2022-11-05T05:25:50.171Z,9.00
2022-11-05T05:31:01.886Z,8.90
2022-11-05T05:36:11.600Z,5.60
2022-11-05T05:41:19.040Z,5.80
2022-11-05T05:46:26.463Z,6.70
2022-11-05T05:51:33.463Z,7.80
2022-11-05T05:56:40.288Z,8.20
2022-11-05T06:01:47.372Z,9.90
2022-11-05T06:06:55.014Z,7.20
2022-11-05T06:12:03.210Z,8.90
2022-11-05T06:17:10.774Z,9.10
2022-11-05T06:22:17.887Z,14.20
2022-11-05T06:27:24.765Z,12.10
2022-11-05T06:32:31.949Z,11.50
2022-11-05T06:37:38.930Z,13.00
2022-11-05T06:42:52.685Z,14.20
2022-11-05T06:48:00.953Z,18.20
2022-11-05T06:53:07.815Z,11.80
2022-11-05T06:58:15.452Z,10.90
2022-11-05T07:03:22.359Z,16.70
2022-11-05T07:08:31.597Z,10.10
2022-11-05T07:13:39.117Z,10.70
2022-11-05T07:18:47.645Z,11.20
2022-11-05T07:23:54.608Z,10.10
2022-11-05T07:29:01.757Z,10.50
2022-11-05T07:34:09.413Z,10.70
2022-11-05T07:39:16.246Z,11.10
2022-11-05T07:44:23.276Z,10.60
2022-11-05T07:49:30.523Z,9.60
2022-11-05T07:54:38.183Z,12.20
2022-11-05T07:59:45.189Z,10.40
2022-11-05T08:04:52.080Z,10.70
2022-11-05T08:09:58.976Z,9.50
2022-11-05T08:15:06.372Z,10.70
2022-11-05T08:20:15.088Z,8.00
2022-11-05T08:25:22.632Z,11.30
2022-11-05T08:30:30.482Z,10.60
2022-11-05T08:35:39.266Z,6.30
2022-11-05T08:40:54.174Z,6.90
2022-11-05T08:46:02.617Z,6.20
2022-11-05T08:51:09.631Z,5.90
2022-11-05T08:56:17.506Z,5.70
2022-11-05T09:01:24.649Z,7.00
2022-11-05T09:06:32.008Z,6.10
2022-11-05T09:12:05.734Z,7.50
2022-11-05T09:17:06.028Z,5.30
2022-11-05T09:22:13.585Z,4.60
2022-11-05T09:27:29.021Z,5.40
2022-11-05T09:32:46.550Z,9.10
2022-11-05T09:37:56.852Z,5.00
2022-11-05T09:43:09.456Z,4.50
2022-11-05T09:48:21.511Z,6.10
2022-11-05T09:53:28.910Z,8.40
2022-11-05T09:58:43.710Z,8.20
2022-11-05T10:03:56.942Z,8.50
2022-11-05T10:09:10.033Z,9.10
2022-11-05T10:14:22.100Z,6.80
2022-11-05T10:19:36.691Z,6.30
2022-11-05T10:24:48.578Z,6.90
2022-11-05T10:29:55.756Z,7.30
2022-11-05T10:35:06.384Z,5.40
2022-11-05T10:40:23.605Z,11.00
2022-11-05T10:45:37.996Z,6.30
2022-11-05T10:50:47.106Z,7.00
2022-11-05T10:55:55.084Z,6.50
2022-11-05T11:01:09.198Z,10.60
2022-11-05T11:06:27.318Z,16.40
2022-11-05T11:11:38.064Z,8.40
2022-11-05T11:16:47.387Z,6.20
2022-11-05T11:22:17.971Z,9.90
2022-11-05T11:27:28.196Z,8.00
2022-11-05T11:32:40.070Z,11.90
2022-11-05T11:37:47.456Z,9.10
2022-11-05T11:43:01.030Z,9.20
2022-11-05T11:48:15.522Z,7.00
2022-11-05T11:53:35.288Z,10.70
2022-11-05T11:58:45.894Z,7.30
2022-11-05T12:03:56.378Z,6.40
2022-11-05T12:09:13.424Z,9.90
2022-11-05T12:14:30.713Z,12.10
2022-11-05T12:26:46.731Z,10.10
2022-11-05T12:32:04.321Z,7.60
2022-11-05T12:37:30.894Z,12.00
2022-11-05T12:42:54.250Z,10.50
2022-11-05T12:48:14.100Z,10.50
2022-11-05T12:53:38.472Z,15.70
2022-11-05T12:58:49.894Z,8.10
2022-11-05T13:04:06.988Z,10.50
2022-11-05T13:09:20.145Z,12.70
2022-11-05T13:14:32.196Z,13.20
2022-11-05T13:19:59.801Z,20.80
2022-11-05T13:25:13.980Z,12.80
2022-11-05T13:30:23.658Z,7.70
2022-11-05T13:35:34.065Z,10.20
2022-11-05T13:40:52.942Z,14.00
2022-11-05T13:46:19.721Z,14.20
2022-11-05T13:51:47.582Z,16.40
2022-11-05T13:57:12.389Z,11.80
2022-11-05T14:02:22.835Z,13.50
2022-11-05T14:07:32.322Z,11.00
2022-11-05T14:12:41.730Z,6.90
2022-11-05T14:18:00.874Z,8.10
2022-11-05T14:23:46.971Z,11.50
2022-11-05T14:29:24.134Z,10.30
2022-11-05T14:34:56.227Z,9.70
2022-11-05T14:40:37.501Z,15.60
2022-11-05T14:45:55.447Z,15.90
2022-11-05T14:51:03.772Z,10.50
2022-11-05T14:56:14.654Z,18.20
2022-11-05T15:01:55.760Z,9.40
2022-11-05T15:07:34.864Z,15.50
2022-11-05T15:12:46.242Z,12.80
2022-11-05T15:18:02.932Z,13.30
2022-11-05T15:23:17.336Z,12.50
2022-11-05T15:28:32.183Z,18.60
2022-11-05T15:33:39.213Z,11.10
2022-11-05T15:39:08.202Z,11.60
2022-11-05T15:44:27.052Z,17.40
2022-11-05T15:49:34.361Z,16.00
2022-11-05T15:54:41.530Z,18.60
2022-11-05T15:59:50.069Z,22.40
2022-11-05T16:04:58.483Z,26.50
2022-11-05T16:10:09.968Z,24.60
2022-11-05T16:15:32.343Z,28.40
2022-11-05T16:20:42.656Z,29.10
2022-11-05T16:25:49.450Z,34.20
2022-11-05T16:30:58.463Z,46.70
2022-11-05T16:36:06.702Z,52.00
2022-11-05T16:41:18.137Z,63.40
2022-11-05T16:46:26.778Z,50.20
2022-11-05T16:51:33.930Z,59.50
2022-11-05T16:56:42.850Z,65.10
2022-11-05T17:01:55.520Z,64.80
2022-11-05T17:07:03.137Z,48.20
2022-11-05T17:12:10.296Z,50.30
2022-11-05T17:17:17.236Z,43.20
2022-11-05T17:22:24.202Z,50.80
2022-11-05T17:27:31.152Z,66.90
2022-11-05T17:32:39.274Z,61.90
2022-11-05T17:37:46.832Z,69.30
2022-11-05T17:42:54.492Z,56.30
2022-11-05T17:48:03.426Z,52.00
2022-11-05T17:53:18.324Z,38.50
2022-11-05T17:58:28.164Z,41.40
2022-11-05T18:03:38.125Z,32.40
2022-11-05T18:08:45.651Z,41.30
2022-11-05T18:13:52.571Z,56.10
2022-11-05T18:19:00.026Z,51.10
2022-11-05T18:24:08.651Z,70.50
2022-11-05T18:29:15.972Z,64.80
2022-11-05T18:34:22.902Z,43.30
2022-11-05T18:39:31.265Z,55.80
2022-11-05T18:44:39.563Z,52.50
2022-11-05T18:49:46.669Z,50.40
2022-11-05T18:54:56.399Z,57.10
2022-11-05T19:00:05.237Z,57.00
2022-11-05T19:05:29.776Z,49.50
2022-11-05T19:10:40.466Z,51.60
2022-11-05T19:15:47.947Z,50.60
2022-11-05T19:20:55.306Z,56.30
2022-11-05T19:26:06.880Z,50.80
2022-11-05T19:31:16.818Z,50.70
2022-11-05T19:36:25.983Z,64.00
2022-11-05T19:41:33.319Z,63.60
2022-11-05T19:46:40.284Z,61.40
2022-11-05T19:51:49.028Z,59.60
2022-11-05T19:56:56.000Z,64.50
2022-11-05T20:02:03.321Z,86.00
2022-11-05T20:07:10.511Z,104.00
2022-11-05T20:12:17.415Z,105.30
2022-11-05T20:17:24.397Z,82.80
2022-11-05T20:22:31.323Z,78.50
2022-11-05T20:27:38.337Z,71.50
2022-11-05T20:32:45.658Z,75.20
2022-11-05T20:37:54.214Z,67.70
2022-11-05T20:43:01.765Z,52.40
2022-11-05T20:48:09.337Z,53.10
2022-11-05T20:53:18.188Z,60.50
2022-11-05T20:58:25.199Z,60.80
2022-11-05T21:03:32.674Z,66.30
2022-11-05T21:08:41.012Z,56.30
2022-11-05T21:13:48.447Z,72.90
2022-11-05T21:18:55.268Z,89.80
2022-11-05T21:24:02.130Z,145.20
2022-11-05T21:29:09.149Z,134.40
2022-11-05T21:34:16.104Z,118.20
2022-11-05T21:39:23.773Z,120.00
2022-11-05T21:44:30.868Z,100.00
2022-11-05T21:49:38.231Z,109.40
2022-11-05T21:55:02.897Z,75.00
2022-11-05T22:00:12.433Z,71.80
2022-11-05T22:05:19.579Z,67.80
2022-11-05T22:10:26.669Z,71.30
2022-11-05T22:15:33.987Z,73.00
2022-11-05T22:20:41.475Z,60.70
2022-11-05T22:25:48.325Z,69.80
2022-11-05T22:30:55.451Z,59.90
2022-11-05T22:36:04.398Z,71.10
2022-11-05T22:41:12.917Z,67.50
2022-11-05T22:46:21.533Z,109.50
2022-11-05T22:51:30.829Z,71.00
2022-11-05T22:56:41.733Z,84.90
2022-11-05T23:01:49.523Z,106.10
2022-11-05T23:07:14.510Z,203.90
2022-11-05T23:12:29.483Z,146.40
2022-11-05T23:17:54.280Z,69.90
2022-11-05T23:23:20.250Z,112.30
2022-11-05T23:28:28.136Z,141.80
2022-11-05T23:33:37.175Z,160.30
2022-11-05T23:38:43.994Z,120.20
2022-11-05T23:44:08.665Z,117.40
2022-11-05T23:49:15.597Z,90.70
2022-11-05T23:54:23.097Z,86.30
2022-11-05T23:59:29.902Z,78.00
